Time;durP1;ratioP1;P1;durP2;ratioP2;P2;SDS_P1;SDS_P2;PMS_P1;PMS_P2;Temp;Humidity;BMP_temperature;BMP_pressure;BME280_temperature;BME280_humidity;BME280_pressure;Samples;Min_cycle;Max_cycle;Signal;HPM_P1;HPM_P2
2023/09/22 00:01:42;;;;;;;1.70;1.60;;;16.90;99.60;;;;;;5072655;28;20441;-57
2023/09/22 00:04:11;;;;;;;1.73;1.30;;;16.90;99.50;;;;;;5072690;28;20445;-57
2023/09/22 00:06:37;;;;;;;3.40;1.50;;;16.80;99.40;;;;;;5072607;28;20444;-57
2023/09/22 00:09:09;;;;;;;2.00;1.63;;;16.80;99.90;;;;;;5074322;28;20453;-57
2023/09/22 00:11:37;;;;;;;1.57;1.10;;;16.70;99.40;;;;;;5075767;28;20841;-57
2023/09/22 00:14:05;;;;;;;2.77;1.23;;;16.70;99.10;;;;;;5075746;28;20480;-57
2023/09/22 00:16:34;;;;;;;2.43;0.90;;;16.60;99.30;;;;;;5075847;28;20456;-57
2023/09/22 00:19:05;;;;;;;2.60;1.23;;;16.60;99.10;;;;;;5076279;28;20460;-57
2023/09/22 00:21:32;;;;;;;1.47;1.17;;;16.70;99.30;;;;;;5076428;28;20425;-57
2023/09/22 00:23:58;;;;;;;2.53;1.20;;;16.70;99.40;;;;;;5076233;28;20456;-57
2023/09/22 00:26:25;;;;;;;2.07;0.93;;;16.60;99.00;;;;;;5076545;28;20445;-57
2023/09/22 00:28:53;;;;;;;1.10;1.00;;;16.60;98.50;;;;;;5076013;28;20461;-57
2023/09/22 00:31:20;;;;;;;1.50;1.10;;;16.70;98.20;;;;;;5075544;28;20492;-56
2023/09/22 00:33:46;;;;;;;1.50;1.40;;;16.60;98.00;;;;;;5075947;28;20452;-57
2023/09/22 00:36:14;;;;;;;4.53;1.30;;;16.60;97.80;;;;;;5075812;28;20448;-57
2023/09/22 00:38:41;;;;;;;2.40;1.63;;;16.60;97.40;;;;;;5075603;28;20447;-57
2023/09/22 00:41:08;;;;;;;2.97;1.43;;;16.50;97.40;;;;;;5075987;28;20535;-57
2023/09/22 00:43:35;;;;;;;1.63;1.53;;;16.40;97.50;;;;;;5075568;28;20464;-57
2023/09/22 00:46:03;;;;;;;1.70;1.43;;;16.40;97.90;;;;;;5076448;28;20449;-57
2023/09/22 00:48:34;;;;;;;3.80;1.50;;;16.40;98.00;;;;;;5075526;28;20444;-57
2023/09/22 00:51:01;;;;;;;3.43;1.70;;;16.40;98.40;;;;;;5075499;28;20448;-57
2023/09/22 00:53:31;;;;;;;1.70;1.60;;;16.50;98.30;;;;;;5075151;28;20527;-57
2023/09/22 00:55:59;;;;;;;4.67;1.73;;;16.50;98.70;;;;;;5075385;28;20441;-57
2023/09/22 00:58:26;;;;;;;3.87;1.80;;;16.60;98.80;;;;;;5075388;28;20539;-58
2023/09/22 01:00:53;;;;;;;4.80;1.90;;;16.60;98.00;;;;;;5075167;28;20867;-57
2023/09/22 01:03:23;;;;;;;3.27;2.07;;;16.60;97.80;;;;;;5075410;28;20856;-57
2023/09/22 01:05:51;;;;;;;2.10;1.53;;;16.60;97.80;;;;;;5075393;28;20430;-57
2023/09/22 01:08:18;;;;;;;1.77;1.63;;;16.60;97.70;;;;;;5075315;28;20437;-57
2023/09/22 01:10:46;;;;;;;2.40;2.20;;;16.50;97.70;;;;;;5074949;28;20490;-56
2023/09/22 01:13:13;;;;;;;2.80;1.73;;;16.60;97.90;;;;;;5074429;28;21032;-57
2023/09/22 01:15:41;;;;;;;4.03;2.10;;;16.60;97.90;;;;;;5074860;28;20444;-57
2023/09/22 01:18:10;;;;;;;3.17;2.23;;;16.60;97.90;;;;;;5074899;28;20453;-57
2023/09/22 01:20:43;;;;;;;4.73;2.40;;;16.60;98.20;;;;;;5074101;28;20469;-57
2023/09/22 01:23:13;;;;;;;3.70;2.20;;;16.60;97.70;;;;;;5074704;28;20429;-57
2023/09/22 01:25:40;;;;;;;3.10;2.20;;;16.60;97.60;;;;;;5074447;28;20926;-57
2023/09/22 01:28:07;;;;;;;6.60;2.80;;;16.60;97.60;;;;;;5074670;28;20536;-57
2023/09/22 01:30:34;;;;;;;3.53;2.33;;;16.60;97.40;;;;;;5074537;28;20496;-57
2023/09/22 01:33:03;;;;;;;4.53;2.57;;;16.60;97.50;;;;;;5074518;28;20487;-57
2023/09/22 01:35:32;;;;;;;4.13;2.60;;;16.60;97.50;;;;;;5074267;28;20445;-57
2023/09/22 01:38:10;;;;;;;2.53;2.00;;;16.60;97.40;;;;;;5074387;28;20959;-57
2023/09/22 01:40:38;;;;;;;3.23;1.90;;;16.70;97.30;;;;;;5074045;28;21000;-57
2023/09/22 01:43:05;;;;;;;2.30;2.10;;;16.60;97.10;;;;;;5073998;28;20861;-56
2023/09/22 01:45:31;;;;;;;5.30;2.07;;;16.60;97.00;;;;;;5074362;28;20445;-57
2023/09/22 01:47:58;;;;;;;7.10;2.37;;;16.60;97.00;;;;;;5075133;28;20547;-57
2023/09/22 01:50:25;;;;;;;3.27;1.87;;;16.60;97.00;;;;;;5074171;28;20479;-57
2023/09/22 01:52:53;;;;;;;3.87;1.90;;;16.60;97.00;;;;;;5074211;28;20485;-57
2023/09/22 01:55:20;;;;;;;2.77;2.00;;;16.60;97.00;;;;;;5074137;28;20446;-57
2023/09/22 01:57:49;;;;;;;2.30;1.70;;;16.50;97.00;;;;;;5074183;28;20448;-57
2023/09/22 02:00:18;;;;;;;5.70;2.30;;;16.50;97.00;;;;;;5073931;28;20467;-57
2023/09/22 02:02:45;;;;;;;3.80;2.00;;;16.40;97.00;;;;;;5074060;28;20479;-57
2023/09/22 02:05:14;;;;;;;3.37;2.00;;;16.40;96.90;;;;;;5074106;28;20451;-57
2023/09/22 02:07:42;;;;;;;2.77;1.87;;;16.40;97.00;;;;;;5073963;28;20503;-57
2023/09/22 02:10:11;;;;;;;13.20;1.70;;;16.30;97.10;;;;;;5073696;28;20464;-57
2023/09/22 02:12:38;;;;;;;2.07;1.50;;;16.30;96.90;;;;;;5073506;28;21058;-57
2023/09/22 02:15:09;;;;;;;2.70;1.40;;;16.20;97.10;;;;;;5073684;28;20445;-56
2023/09/22 02:17:35;;;;;;;2.83;1.93;;;16.20;97.10;;;;;;5073808;28;20436;-57
2023/09/22 02:20:05;;;;;;;2.07;1.63;;;16.20;97.30;;;;;;5073682;28;20460;-57
2023/09/22 02:22:32;;;;;;;1.30;1.20;;;16.20;97.30;;;;;;5073684;28;20190;-57
2023/09/22 02:24:59;;;;;;;5.33;1.70;;;16.20;97.30;;;;;;5073289;28;20518;-57
2023/09/22 02:27:26;;;;;;;1.83;1.23;;;16.20;97.20;;;;;;5073662;28;20445;-57
2023/09/22 02:29:53;;;;;;;1.23;1.00;;;16.20;97.30;;;;;;5073523;28;20473;-57
2023/09/22 02:32:21;;;;;;;13.03;2.20;;;16.20;97.30;;;;;;5072545;28;20480;-56
2023/09/22 02:34:48;;;;;;;1.87;1.13;;;16.20;97.10;;;;;;5081693;28;20497;-56
2023/09/22 02:37:15;;;;;;;2.37;1.57;;;16.10;97.10;;;;;;5093744;28;20869;-57
2023/09/22 02:39:43;;;;;;;6.37;1.90;;;16.10;97.00;;;;;;5093552;28;20463;-57
2023/09/22 02:42:10;;;;;;;2.47;1.30;;;16.10;97.10;;;;;;5093674;28;20440;-57
2023/09/22 02:44:37;;;;;;;5.30;1.27;;;16.00;97.10;;;;;;5093578;28;20443;-57
2023/09/22 02:47:03;;;;;;;4.00;1.43;;;16.10;97.00;;;;;;5093621;28;20443;-57
2023/09/22 02:49:32;;;;;;;4.00;1.60;;;16.10;96.90;;;;;;5093511;28;20475;-57
2023/09/22 02:51:58;;;;;;;2.60;1.20;;;16.10;96.90;;;;;;5093393;28;20444;-56
2023/09/22 02:54:25;;;;;;;1.30;1.20;;;16.10;96.90;;;;;;5093480;28;20440;-57
2023/09/22 02:56:53;;;;;;;3.53;1.20;;;16.10;97.00;;;;;;5093573;28;20443;-57
2023/09/22 02:59:20;;;;;;;4.13;1.67;;;16.20;97.10;;;;;;5093319;28;20517;-56
2023/09/22 03:01:46;;;;;;;1.70;1.20;;;16.20;97.10;;;;;;5093462;28;20497;-57
2023/09/22 03:04:13;;;;;;;3.43;2.10;;;16.30;97.20;;;;;;5093438;28;20449;-57
2023/09/22 03:06:41;;;;;;;2.30;1.17;;;16.30;97.20;;;;;;5093394;28;20451;-57
2023/09/22 03:09:09;;;;;;;1.60;1.23;;;16.30;97.10;;;;;;5093298;28;20474;-57
2023/09/22 03:11:36;;;;;;;4.40;1.97;;;16.30;97.10;;;;;;5093095;28;20908;-57
2023/09/22 03:14:04;;;;;;;7.10;1.90;;;16.30;96.90;;;;;;5093177;28;20479;-57
2023/09/22 03:16:31;;;;;;;3.40;1.10;;;16.30;96.70;;;;;;5092974;28;21024;-57
2023/09/22 03:18:58;;;;;;;2.77;1.30;;;16.30;96.70;;;;;;5093279;28;20486;-57
2023/09/22 03:21:25;;;;;;;3.53;1.10;;;16.30;96.70;;;;;;5093383;28;20452;-57
2023/09/22 03:23:54;;;;;;;1.47;1.37;;;16.20;96.70;;;;;;5093072;28;20454;-57
2023/09/22 03:26:22;;;;;;;4.27;2.30;;;16.20;96.40;;;;;;5093270;28;20564;-57
2023/09/22 03:28:49;;;;;;;2.40;1.50;;;16.10;96.50;;;;;;5093522;28;20519;-57
2023/09/22 03:31:18;;;;;;;1.40;1.23;;;16.10;96.60;;;;;;5093197;28;20859;-57
2023/09/22 03:33:46;;;;;;;4.27;1.60;;;16.10;96.40;;;;;;5092952;28;21035;-57
2023/09/22 03:36:13;;;;;;;5.83;1.30;;;16.00;96.40;;;;;;5093184;28;20444;-57
2023/09/22 03:38:41;;;;;;;1.37;1.27;;;16.00;96.50;;;;;;5096793;28;20953;-57
2023/09/22 03:41:09;;;;;;;6.93;2.13;;;16.00;96.40;;;;;;5093719;28;20444;-57
2023/09/22 03:43:36;;;;;;;2.67;1.10;;;16.00;96.30;;;;;;5094423;28;20475;-56
2023/09/22 03:46:03;;;;;;;3.80;1.83;;;15.80;96.40;;;;;;5097517;28;20443;-57
2023/09/22 03:48:30;;;;;;;2.50;1.33;;;15.80;96.50;;;;;;5097224;28;20439;-57
2023/09/22 03:50:56;;;;;;;2.03;1.17;;;15.80;96.70;;;;;;5096854;28;20455;-57
2023/09/22 03:53:23;;;;;;;4.00;1.63;;;15.80;96.70;;;;;;5096434;28;20879;-56
2023/09/22 03:55:50;;;;;;;5.53;1.30;;;15.80;96.80;;;;;;5096819;28;20444;-56
2023/09/22 03:58:19;;;;;;;3.37;1.20;;;15.80;96.80;;;;;;5096480;28;20815;-57
2023/09/22 04:00:46;;;;;;;2.13;1.40;;;15.80;97.00;;;;;;5096628;28;20837;-57
2023/09/22 04:03:13;;;;;;;1.20;1.10;;;15.80;96.90;;;;;;5096866;28;20443;-57
2023/09/22 04:05:40;;;;;;;1.77;1.20;;;15.80;96.90;;;;;;5096264;28;20941;-57
2023/09/22 04:08:07;;;;;;;3.27;1.20;;;15.80;96.50;;;;;;5096541;28;20439;-57
2023/09/22 04:10:34;;;;;;;1.20;1.07;;;15.80;96.40;;;;;;5096367;28;20474;-57
2023/09/22 04:13:00;;;;;;;3.00;1.27;;;15.80;96.70;;;;;;5095930;28;21019;-57
2023/09/22 04:15:28;;;;;;;2.60;1.33;;;15.80;96.70;;;;;;5096448;28;20447;-57
2023/09/22 04:17:55;;;;;;;2.53;1.27;;;15.80;96.70;;;;;;5096318;28;20451;-57
2023/09/22 04:20:29;;;;;;;3.20;1.27;;;15.80;96.90;;;;;;5096242;28;20463;-57
2023/09/22 04:22:56;;;;;;;4.10;1.47;;;15.80;97.00;;;;;;5096271;28;20520;-56
2023/09/22 04:25:29;;;;;;;1.40;1.07;;;15.80;97.20;;;;;;5095837;28;20465;-57
2023/09/22 04:28:07;;;;;;;5.60;1.60;;;15.80;97.20;;;;;;5096253;28;20460;-57
2023/09/22 04:30:36;;;;;;;2.10;1.33;;;15.90;97.20;;;;;;5095983;28;20969;-57
2023/09/22 04:33:03;;;;;;;1.73;1.30;;;15.90;97.20;;;;;;5096385;28;20483;-57
2023/09/22 04:35:32;;;;;;;2.90;1.50;;;15.90;97.20;;;;;;5096008;28;20483;-57
2023/09/22 04:37:59;;;;;;;2.20;1.27;;;15.90;97.00;;;;;;5095587;28;20949;-57
2023/09/22 04:40:29;;;;;;;1.60;1.10;;;15.90;96.80;;;;;;5095861;28;20463;-56
2023/09/22 04:42:56;;;;;;;3.93;1.40;;;15.90;96.60;;;;;;5095754;28;20428;-56
2023/09/22 04:45:23;;;;;;;3.67;1.60;;;15.90;96.80;;;;;;5095789;28;20444;-57
2023/09/22 04:47:52;;;;;;;2.13;1.20;;;15.90;96.70;;;;;;5095476;28;20811;-57
2023/09/22 04:50:19;;;;;;;1.20;1.00;;;15.90;96.80;;;;;;5095655;28;20464;-57
2023/09/22 04:52:46;;;;;;;3.00;1.70;;;15.90;97.00;;;;;;5095649;28;20481;-57
2023/09/22 04:55:16;;;;;;;2.00;1.40;;;15.90;97.00;;;;;;5094616;28;20901;-57
2023/09/22 04:57:43;;;;;;;3.00;1.80;;;15.90;97.00;;;;;;5095698;28;20876;-57
2023/09/22 05:00:16;;;;;;;3.17;1.30;;;15.90;97.10;;;;;;5095448;28;20474;-57
2023/09/22 05:02:43;;;;;;;5.63;1.60;;;16.00;97.30;;;;;;5095211;28;20965;-57
2023/09/22 05:05:11;;;;;;;5.00;1.43;;;16.00;97.20;;;;;;5095182;28;20875;-57
2023/09/22 05:07:38;;;;;;;4.23;1.33;;;15.90;97.20;;;;;;5095304;28;20875;-57
2023/09/22 05:10:06;;;;;;;3.30;1.40;;;15.90;97.00;;;;;;5094972;28;20988;-57
2023/09/22 05:12:32;;;;;;;3.90;1.50;;;15.90;97.10;;;;;;5095247;28;20475;-57
2023/09/22 05:15:00;;;;;;;3.90;1.40;;;15.90;97.10;;;;;;5095146;28;20539;-57
2023/09/22 05:17:27;;;;;;;5.87;1.20;;;15.90;97.10;;;;;;5095158;28;20800;-57
2023/09/22 05:19:54;;;;;;;5.73;1.40;;;15.80;97.00;;;;;;5095190;28;20479;-57
2023/09/22 05:22:22;;;;;;;2.70;1.30;;;15.80;97.20;;;;;;5095037;28;20451;-57
2023/09/22 05:24:49;;;;;;;4.77;1.53;;;15.80;97.20;;;;;;5094939;28;20490;-57
2023/09/22 05:27:16;;;;;;;2.20;1.00;;;15.80;97.10;;;;;;5095052;28;20447;-57
2023/09/22 05:29:43;;;;;;;2.80;1.20;;;15.70;97.10;;;;;;5094893;28;20463;-57
2023/09/22 05:32:10;;;;;;;3.27;1.87;;;15.60;97.20;;;;;;5094847;28;20439;-57
2023/09/22 05:34:39;;;;;;;2.47;1.60;;;15.50;97.50;;;;;;5086906;28;20542;-56
2023/09/22 05:37:06;;;;;;;3.23;1.80;;;15.50;97.60;;;;;;5074550;28;20822;-57
2023/09/22 05:39:34;;;;;;;2.87;1.67;;;15.50;97.70;;;;;;5074358;28;20472;-57
2023/09/22 05:42:01;;;;;;;4.00;1.73;;;15.60;97.70;;;;;;5074379;28;20446;-57
2023/09/22 05:44:28;;;;;;;4.10;1.73;;;15.50;97.50;;;;;;5074321;28;20448;-57
2023/09/22 05:46:55;;;;;;;2.80;1.60;;;15.50;97.50;;;;;;5074572;28;20539;-57
2023/09/22 05:49:22;;;;;;;2.90;1.50;;;15.50;97.60;;;;;;5074333;28;20456;-57
2023/09/22 05:51:49;;;;;;;3.80;1.53;;;15.50;97.70;;;;;;5073940;28;20926;-57
2023/09/22 05:54:16;;;;;;;2.40;1.40;;;15.60;97.80;;;;;;5074209;28;20512;-57
2023/09/22 05:56:44;;;;;;;2.23;1.30;;;15.50;97.70;;;;;;5074230;28;20445;-57
2023/09/22 05:59:10;;;;;;;2.10;1.40;;;15.50;97.50;;;;;;5073683;28;20815;-57
2023/09/22 06:01:37;;;;;;;2.07;1.70;;;15.60;97.70;;;;;;5073772;28;20935;-57
2023/09/22 06:04:05;;;;;;;6.80;2.00;;;15.50;97.50;;;;;;5073995;28;20437;-57
2023/09/22 06:06:33;;;;;;;3.50;1.60;;;15.50;97.40;;;;;;5073758;28;20471;-57
2023/09/22 06:09:00;;;;;;;3.20;1.47;;;15.50;97.40;;;;;;5073851;28;20491;-57
2023/09/22 06:11:27;;;;;;;3.33;1.40;;;15.60;97.60;;;;;;5074002;28;20452;-58
2023/09/22 06:13:55;;;;;;;3.73;1.60;;;15.70;97.60;;;;;;5073377;28;20857;-57
2023/09/22 06:16:24;;;;;;;5.80;1.47;;;15.70;97.40;;;;;;5073512;28;20818;-57
2023/09/22 06:18:51;;;;;;;5.20;1.60;;;15.70;97.30;;;;;;5073749;28;20468;-57
2023/09/22 06:21:17;;;;;;;2.43;1.40;;;15.70;97.30;;;;;;5073346;28;20805;-57
2023/09/22 06:23:44;;;;;;;2.13;1.20;;;15.70;97.20;;;;;;5073550;28;20449;-57
2023/09/22 06:26:12;;;;;;;5.03;1.33;;;15.70;97.10;;;;;;5073471;28;20940;-57
2023/09/22 06:28:38;;;;;;;3.33;1.30;;;15.70;97.00;;;;;;5073670;28;20444;-57
2023/09/22 06:31:07;;;;;;;11.47;1.40;;;15.70;97.40;;;;;;5073876;28;20464;-57
2023/09/22 06:33:34;;;;;;;2.37;1.23;;;15.80;97.10;;;;;;5073572;28;20481;-57
2023/09/22 06:36:02;;;;;;;3.43;1.30;;;15.80;97.00;;;;;;5073768;28;20451;-57
2023/09/22 06:38:32;;;;;;;2.80;1.00;;;15.90;96.90;;;;;;5073740;28;20476;-57
2023/09/22 06:41:00;;;;;;;3.70;1.13;;;15.90;96.70;;;;;;5083312;28;20555;-56
2023/09/22 06:43:29;;;;;;;1.83;1.13;;;15.90;96.60;;;;;;5090851;28;20945;-57
2023/09/22 06:45:58;;;;;;;2.07;1.20;;;15.90;96.40;;;;;;5073677;28;20451;-58
2023/09/22 06:48:27;;;;;;;2.23;0.97;;;15.90;96.50;;;;;;5073491;28;20453;-57
2023/09/22 06:50:54;;;;;;;2.60;1.30;;;15.90;96.40;;;;;;5073324;28;20460;-56
2023/09/22 06:53:22;;;;;;;2.63;1.13;;;16.00;96.30;;;;;;5072955;28;21009;-57
2023/09/22 06:55:49;;;;;;;2.13;0.83;;;16.00;96.30;;;;;;5073387;28;20899;-58
2023/09/22 06:58:15;;;;;;;1.93;0.90;;;16.00;96.00;;;;;;5073026;28;20849;-57
2023/09/22 07:00:42;;;;;;;2.47;1.33;;;16.10;96.20;;;;;;5072871;28;20977;-57
2023/09/22 07:03:09;;;;;;;2.50;0.80;;;16.10;96.20;;;;;;5090182;28;20976;-56
2023/09/22 07:05:38;;;;;;;5.23;1.83;;;16.20;96.50;;;;;;5093180;28;20937;-56
2023/09/22 07:08:05;;;;;;;2.43;1.20;;;16.30;96.40;;;;;;5093328;28;20448;-57
2023/09/22 07:10:34;;;;;;;2.03;1.47;;;16.30;95.80;;;;;;5093365;28;20826;-57
2023/09/22 07:13:01;;;;;;;1.10;0.80;;;16.40;95.80;;;;;;5093447;28;20459;-57
2023/09/22 07:15:28;;;;;;;1.93;1.50;;;16.50;95.40;;;;;;5094145;28;20548;-57
2023/09/22 07:17:55;;;;;;;2.13;1.10;;;16.50;95.10;;;;;;5093455;28;20443;-57
2023/09/22 07:20:22;;;;;;;5.40;1.13;;;16.50;94.40;;;;;;5097251;28;20466;-57
2023/09/22 07:22:50;;;;;;;1.67;0.80;;;16.50;94.30;;;;;;5097451;28;20435;-57
2023/09/22 07:25:17;;;;;;;3.17;0.90;;;16.60;94.30;;;;;;5097222;28;20462;-57
2023/09/22 07:27:44;;;;;;;1.63;0.97;;;16.70;94.10;;;;;;5097329;28;20452;-58
2023/09/22 07:30:12;;;;;;;1.20;0.87;;;16.70;93.80;;;;;;5097500;28;20460;-57
2023/09/22 07:32:41;;;;;;;2.17;0.70;;;16.80;94.10;;;;;;5097235;28;20801;-57
2023/09/22 07:35:08;;;;;;;2.50;0.80;;;16.80;93.40;;;;;;5097227;28;20521;-58
2023/09/22 07:37:35;;;;;;;2.30;0.70;;;16.90;93.10;;;;;;5097460;28;20439;-58
2023/09/22 07:40:08;;;;;;;2.03;0.70;;;16.90;92.90;;;;;;5097027;28;20471;-57
2023/09/22 07:42:35;;;;;;;1.63;0.93;;;17.00;92.60;;;;;;5097164;28;20424;-57
2023/09/22 07:45:02;;;;;;;2.30;0.73;;;17.10;92.50;;;;;;5096942;28;20446;-57
2023/09/22 07:47:29;;;;;;;1.97;0.80;;;17.20;92.80;;;;;;5096643;28;20444;-58
2023/09/22 07:49:56;;;;;;;5.43;1.10;;;17.20;92.10;;;;;;5096870;28;20513;-57
2023/09/22 07:52:24;;;;;;;3.93;0.80;;;17.30;92.00;;;;;;5096893;28;20869;-57
2023/09/22 07:54:52;;;;;;;2.80;1.03;;;17.40;91.80;;;;;;5096746;28;20548;-57
2023/09/22 07:57:20;;;;;;;2.30;0.90;;;17.50;91.60;;;;;;5096713;28;20452;-57
2023/09/22 07:59:47;;;;;;;1.70;0.80;;;17.50;91.40;;;;;;5096742;28;20459;-57
2023/09/22 08:02:17;;;;;;;2.17;0.90;;;17.60;91.30;;;;;;5096410;28;20447;-56
2023/09/22 08:04:43;;;;;;;2.10;0.80;;;17.60;91.20;;;;;;5096843;28;20436;-56
2023/09/22 08:07:10;;;;;;;1.40;0.90;;;17.60;91.40;;;;;;5096276;28;20861;-57
2023/09/22 08:09:37;;;;;;;1.97;0.80;;;17.70;91.40;;;;;;5096238;28;20554;-57
2023/09/22 08:12:05;;;;;;;2.43;1.00;;;17.80;90.70;;;;;;5096245;28;20899;-57
2023/09/22 08:14:34;;;;;;;1.43;0.80;;;17.90;90.80;;;;;;5096230;28;20486;-56
2023/09/22 08:17:04;;;;;;;4.73;0.60;;;17.80;90.30;;;;;;5096032;28;20968;-56
2023/09/22 08:19:31;;;;;;;2.80;1.07;;;17.70;90.40;;;;;;5096349;28;20499;-56
2023/09/22 08:21:58;;;;;;;0.70;0.50;;;17.80;90.50;;;;;;5096262;28;20439;-56
2023/09/22 08:24:25;;;;;;;2.00;0.80;;;17.80;90.80;;;;;;5095912;28;20979;-56
2023/09/22 08:26:52;;;;;;;1.30;0.87;;;17.90;90.20;;;;;;5096211;28;20440;-56
2023/09/22 08:29:18;;;;;;;0.97;0.70;;;18.00;90.70;;;;;;5095802;28;20989;-56
2023/09/22 08:31:45;;;;;;;1.20;0.60;;;18.10;89.50;;;;;;5096088;28;20514;-56
2023/09/22 08:34:12;;;;;;;1.50;0.60;;;18.10;88.00;;;;;;5091371;28;20472;-56
2023/09/22 08:36:39;;;;;;;0.80;0.60;;;18.00;87.20;;;;;;5075827;28;20447;-56
2023/09/22 08:39:08;;;;;;;2.20;0.70;;;18.00;88.10;;;;;;5075645;28;20526;-58
2023/09/22 08:41:37;;;;;;;0.87;0.40;;;18.00;86.40;;;;;;5075755;28;20452;-57
2023/09/22 08:44:05;;;;;;;2.93;1.20;;;17.90;83.90;;;;;;5075660;28;20460;-57
2023/09/22 08:46:33;;;;;;;2.23;1.00;;;17.80;84.30;;;;;;5075502;28;20441;-56
2023/09/22 08:49:02;;;;;;;1.60;0.80;;;17.90;85.10;;;;;;5075488;28;20515;-57
2023/09/22 08:51:28;;;;;;;2.03;0.70;;;17.90;84.10;;;;;;5075541;28;20469;-57
2023/09/22 08:53:55;;;;;;;1.80;1.03;;;17.90;85.60;;;;;;5075503;28;20480;-57
2023/09/22 08:56:23;;;;;;;2.33;0.77;;;18.00;86.20;;;;;;5075359;28;20460;-56
2023/09/22 08:58:51;;;;;;;1.43;0.70;;;17.90;86.30;;;;;;5075311;28;20449;-57
2023/09/22 09:01:18;;;;;;;2.20;0.77;;;17.90;84.40;;;;;;5075361;28;20510;-57
2023/09/22 09:03:46;;;;;;;2.87;0.83;;;17.90;84.80;;;;;;5074964;28;20993;-57
2023/09/22 09:06:17;;;;;;;0.70;0.67;;;17.90;86.40;;;;;;5075268;28;20929;-57
2023/09/22 09:09:04;;;;;;;1.93;0.80;;;18.00;86.10;;;;;;5074923;28;20925;-57
2023/09/22 09:11:30;;;;;;;1.33;0.70;;;18.10;84.00;;;;;;5075172;28;20421;-57
2023/09/22 09:13:57;;;;;;;4.50;0.80;;;18.10;83.20;;;;;;5074509;28;20852;-56
2023/09/22 09:16:30;;;;;;;1.37;0.70;;;18.10;84.60;;;;;;5074644;28;20449;-56
2023/09/22 09:19:13;;;;;;;2.50;0.60;;;18.20;84.30;;;;;;5074858;28;20456;-57
2023/09/22 09:22:02;;;;;;;2.00;0.87;;;18.30;83.50;;;;;;5074964;28;20435;-57
2023/09/22 09:24:31;;;;;;;1.13;0.70;;;18.30;82.90;;;;;;5074544;28;20490;-57
2023/09/22 09:26:57;;;;;;;3.57;1.17;;;18.30;83.00;;;;;;5074899;28;20859;-57
2023/09/22 09:29:27;;;;;;;3.23;1.30;;;18.30;82.10;;;;;;5074866;28;20480;-57
2023/09/22 09:31:55;;;;;;;2.70;0.90;;;18.30;80.50;;;;;;5074651;28;20444;-57
2023/09/22 09:34:38;;;;;;;1.93;0.70;;;18.20;82.70;;;;;;5074712;28;20571;-57
2023/09/22 09:37:13;;;;;;;1.27;0.60;;;18.30;83.40;;;;;;5074619;28;20429;-57
2023/09/22 09:39:47;;;;;;;1.30;0.80;;;18.40;81.80;;;;;;5074564;28;20475;-57
2023/09/22 09:42:19;;;;;;;1.30;0.77;;;18.50;79.80;;;;;;5073917;28;20441;-57
2023/09/22 09:44:49;;;;;;;1.40;0.90;;;18.80;80.90;;;;;;5074034;28;20532;-57
2023/09/22 09:47:23;;;;;;;1.23;1.10;;;18.90;79.00;;;;;;5074151;28;20425;-57
2023/09/22 09:49:52;;;;;;;1.17;0.83;;;19.10;76.20;;;;;;5074046;28;21006;-57
2023/09/22 09:52:25;;;;;;;1.47;0.80;;;19.20;78.20;;;;;;5074005;28;21000;-56
2023/09/22 09:55:01;;;;;;;1.33;0.87;;;19.50;76.10;;;;;;5074225;28;20469;-57
2023/09/22 09:57:30;;;;;;;1.27;0.90;;;19.80;75.00;;;;;;5074092;28;20429;-57
2023/09/22 09:59:58;;;;;;;4.77;0.80;;;20.10;73.20;;;;;;5073968;28;20471;-57
2023/09/22 10:02:27;;;;;;;2.30;0.60;;;20.50;72.10;;;;;;5074565;28;20465;-57
2023/09/22 10:04:57;;;;;;;1.10;0.73;;;20.70;69.60;;;;;;5074689;28;20442;-57
2023/09/22 10:07:25;;;;;;;2.70;1.30;;;20.80;69.00;;;;;;5077574;28;20429;-56
2023/09/22 10:09:52;;;;;;;1.60;0.60;;;20.90;68.80;;;;;;5075745;28;20496;-57
2023/09/22 10:12:19;;;;;;;1.50;1.30;;;21.00;64.60;;;;;;5075463;28;20452;-57
2023/09/22 10:14:47;;;;;;;2.83;0.80;;;21.20;65.30;;;;;;5074209;28;20487;-57
2023/09/22 10:17:21;;;;;;;3.70;1.50;;;21.60;63.40;;;;;;5074121;28;20814;-57
2023/09/22 10:19:48;;;;;;;4.53;1.20;;;21.80;56.70;;;;;;5074024;28;20496;-57
2023/09/22 10:22:15;;;;;;;1.80;0.70;;;22.00;58.60;;;;;;5073344;28;20456;-56
2023/09/22 10:24:43;;;;;;;6.47;0.97;;;22.30;55.90;;;;;;5073818;28;20874;-57
2023/09/22 10:27:14;;;;;;;2.17;0.73;;;22.60;55.60;;;;;;5074030;28;20480;-57
2023/09/22 10:29:51;;;;;;;1.50;0.73;;;23.20;55.50;;;;;;5073944;28;20499;-57
2023/09/22 10:32:21;;;;;;;1.80;0.80;;;23.80;52.80;;;;;;5073847;28;20435;-57
2023/09/22 10:34:49;;;;;;;1.67;0.87;;;24.10;51.50;;;;;;5073758;28;20526;-57
2023/09/22 10:37:16;;;;;;;1.70;0.60;;;24.60;49.90;;;;;;5073643;28;20445;-57
2023/09/22 10:39:58;;;;;;;2.07;0.97;;;24.80;49.10;;;;;;5073587;28;20518;-57
2023/09/22 10:42:26;;;;;;;3.17;0.80;;;24.80;47.90;;;;;;5073590;28;20440;-57
2023/09/22 10:45:01;;;;;;;1.53;0.80;;;24.50;49.20;;;;;;5073615;28;20437;-57
2023/09/22 10:47:39;;;;;;;1.40;1.00;;;23.50;50.10;;;;;;5073734;28;20440;-57
2023/09/22 10:50:19;;;;;;;1.00;0.70;;;22.70;52.10;;;;;;5073622;28;20464;-57
2023/09/22 10:52:56;;;;;;;1.90;0.60;;;22.30;53.90;;;;;;5073046;28;20829;-57
2023/09/22 10:55:30;;;;;;;1.83;0.70;;;22.10;54.70;;;;;;5073324;28;20480;-57
2023/09/22 10:57:58;;;;;;;3.07;0.60;;;22.00;54.10;;;;;;5073453;28;20433;-57
2023/09/22 11:00:26;;;;;;;5.30;0.90;;;21.90;55.90;;;;;;5073376;28;20469;-56
2023/09/22 11:02:53;;;;;;;1.70;0.90;;;21.80;56.60;;;;;;5083929;28;20440;-58
2023/09/22 11:05:19;;;;;;;2.70;0.53;;;21.90;57.30;;;;;;5093951;28;20440;-57
2023/09/22 11:07:46;;;;;;;2.20;0.70;;;21.90;56.50;;;;;;5093870;28;20471;-57
2023/09/22 11:10:20;;;;;;;2.80;0.70;;;21.90;58.00;;;;;;5093596;28;20896;-56
2023/09/22 11:12:50;;;;;;;2.00;0.90;;;22.10;55.20;;;;;;5095051;28;20450;-57
2023/09/22 11:15:17;;;;;;;1.97;0.70;;;21.90;54.20;;;;;;5093525;28;21021;-57
2023/09/22 11:17:46;;;;;;;2.13;1.27;;;21.70;54.40;;;;;;5094489;28;20444;-57
2023/09/22 11:20:18;;;;;;;2.10;0.70;;;21.90;56.80;;;;;;5094941;28;20475;-57
2023/09/22 11:22:46;;;;;;;1.00;0.87;;;22.90;53.90;;;;;;5085475;28;20436;-57
2023/09/22 11:25:13;;;;;;;1.40;0.63;;;24.10;51.70;;;;;;5075839;28;20853;-57
2023/09/22 11:27:45;;;;;;;2.30;0.90;;;25.00;50.50;;;;;;5080141;28;20448;-57
2023/09/22 11:30:16;;;;;;;1.73;0.80;;;25.70;46.10;;;;;;5077369;28;20864;-57
2023/09/22 11:32:44;;;;;;;2.43;1.07;;;26.80;47.00;;;;;;5084790;28;20519;-57
2023/09/22 11:35:11;;;;;;;1.50;0.97;;;27.60;43.50;;;;;;5087908;28;20511;-57
2023/09/22 11:37:39;;;;;;;1.33;0.70;;;27.80;43.40;;;;;;5077627;28;20451;-57
2023/09/22 11:40:14;;;;;;;3.00;1.10;;;27.30;41.40;;;;;;5076635;28;20499;-57
2023/09/22 11:42:47;;;;;;;1.63;0.70;;;26.60;42.70;;;;;;5080311;28;20471;-57
2023/09/22 11:45:21;;;;;;;2.40;1.20;;;26.00;44.80;;;;;;5093213;28;20425;-57
2023/09/22 11:47:49;;;;;;;1.40;1.30;;;25.10;46.10;;;;;;5093150;28;20924;-57
2023/09/22 11:50:24;;;;;;;1.20;0.90;;;24.50;48.20;;;;;;5085470;28;20472;-58
2023/09/22 11:52:51;;;;;;;2.23;0.83;;;23.80;49.60;;;;;;5073890;28;20440;-56
2023/09/22 11:55:17;;;;;;;2.83;0.90;;;23.30;50.50;;;;;;5072972;28;20480;-57
2023/09/22 11:57:45;;;;;;;1.17;1.07;;;23.20;52.50;;;;;;5087472;28;20965;-56
2023/09/22 12:00:15;;;;;;;7.10;1.33;;;23.20;52.00;;;;;;5085283;28;20480;-56
2023/09/22 12:02:43;;;;;;;1.60;1.00;;;23.60;52.90;;;;;;5082166;28;20455;-56
2023/09/22 12:05:09;;;;;;;3.60;1.10;;;23.60;50.60;;;;;;5089492;28;20490;-56
2023/09/22 12:07:36;;;;;;;1.50;0.77;;;23.60;52.00;;;;;;5094713;28;20475;-57
2023/09/22 12:10:03;;;;;;;3.43;0.97;;;23.50;52.60;;;;;;5081494;28;20831;-56
2023/09/22 12:12:30;;;;;;;1.00;0.80;;;23.20;51.30;;;;;;5084272;28;20962;-57
2023/09/22 12:14:57;;;;;;;3.50;1.07;;;23.30;51.70;;;;;;5077587;28;20476;-58
2023/09/22 12:17:24;;;;;;;1.97;0.80;;;23.70;50.70;;;;;;5086286;28;20455;-56
2023/09/22 12:19:52;;;;;;;1.20;0.70;;;24.40;50.30;;;;;;5082567;28;20459;-57
2023/09/22 12:22:19;;;;;;;1.20;1.10;;;25.20;47.10;;;;;;5075418;28;20536;-57
2023/09/22 12:24:45;;;;;;;1.77;1.17;;;25.40;46.60;;;;;;5076292;28;20808;-57
2023/09/22 12:27:12;;;;;;;2.80;1.13;;;25.40;46.80;;;;;;5076043;28;20474;-57
2023/09/22 12:29:39;;;;;;;2.37;0.67;;;25.60;46.70;;;;;;5076094;28;20824;-57
2023/09/22 12:32:07;;;;;;;2.40;1.20;;;25.20;46.40;;;;;;5076045;28;20452;-58
2023/09/22 12:34:34;;;;;;;2.33;0.93;;;25.50;46.30;;;;;;5076179;28;20506;-58
2023/09/22 12:37:02;;;;;;;4.03;1.37;;;26.40;44.50;;;;;;5075819;28;20484;-58
2023/09/22 12:39:29;;;;;;;1.33;0.77;;;26.90;42.60;;;;;;5075673;28;20465;-57
2023/09/22 12:41:55;;;;;;;0.87;0.77;;;27.60;43.40;;;;;;5075469;28;20452;-57
2023/09/22 12:44:23;;;;;;;0.93;0.80;;;28.70;41.40;;;;;;5075409;28;20947;-56
2023/09/22 12:46:50;;;;;;;1.43;0.93;;;30.00;36.80;;;;;;5075648;28;20440;-56
2023/09/22 12:49:17;;;;;;;2.00;0.87;;;31.00;33.60;;;;;;5075725;28;20543;-56
2023/09/22 12:51:44;;;;;;;1.10;0.80;;;31.80;31.60;;;;;;5076022;28;20479;-56